createdAt,value
2019-02-23T00:00:13.771Z,9.63
2019-02-23T00:05:15.326Z,7.20
2019-02-23T00:10:16.883Z,7.73
2019-02-23T00:15:18.455Z,7.63
2019-02-23T00:20:20.117Z,8.60
2019-02-23T00:25:21.762Z,6.97
2019-02-23T00:30:23.428Z,8.47
2019-02-23T00:35:25.131Z,8.77
2019-02-23T00:40:26.688Z,8.33
2019-02-23T00:45:28.246Z,7.87
2019-02-23T00:50:29.839Z,9.40
2019-02-23T00:55:31.506Z,12.03
2019-02-23T01:00:33.193Z,7.47
2019-02-23T01:05:34.853Z,7.90
2019-02-23T01:10:36.427Z,7.23
2019-02-23T01:15:38.097Z,7.03
2019-02-23T01:20:39.853Z,9.50
2019-02-23T01:25:41.416Z,7.83
2019-02-23T01:30:42.974Z,8.50
2019-02-23T01:35:44.521Z,8.57
2019-02-23T01:40:46.188Z,6.57
2019-02-23T01:45:47.780Z,6.03
2019-02-23T01:50:49.386Z,7.67
2019-02-23T01:55:51.048Z,7.03
2019-02-23T02:00:52.713Z,5.90
2019-02-23T02:05:54.285Z,7.47
2019-02-23T02:10:55.959Z,10.07
2019-02-23T02:15:57.633Z,7.00
2019-02-23T02:20:59.223Z,7.37
2019-02-23T02:26:00.825Z,9.43
2019-02-23T02:31:02.405Z,8.47
2019-02-23T02:36:04.074Z,7.47
2019-02-23T02:41:05.641Z,7.13
2019-02-23T02:46:07.206Z,8.30
2019-02-23T02:51:08.770Z,6.60
2019-02-23T02:56:10.341Z,6.37
2019-02-23T03:01:12.015Z,7.20
2019-02-23T03:06:13.570Z,6.10
2019-02-23T03:11:15.163Z,8.27
2019-02-23T03:16:16.751Z,6.63
2019-02-23T03:21:18.308Z,5.77
2019-02-23T03:26:19.861Z,6.87
2019-02-23T03:31:21.469Z,4.63
2019-02-23T03:36:23.452Z,6.10
2019-02-23T03:41:25.000Z,8.00
2019-02-23T03:46:26.557Z,8.27
2019-02-23T03:51:28.114Z,9.77
2019-02-23T03:56:29.868Z,7.07
2019-02-23T04:01:31.500Z,5.97
2019-02-23T04:06:33.061Z,7.80
2019-02-23T04:11:34.729Z,8.87
2019-02-23T04:16:36.297Z,9.07
2019-02-23T04:21:37.850Z,6.33
2019-02-23T04:26:39.440Z,9.37
2019-02-23T04:31:41.109Z,8.53
2019-02-23T04:36:42.761Z,8.03
2019-02-23T04:41:44.331Z,8.83
2019-02-23T04:46:45.975Z,5.63
2019-02-23T04:51:47.617Z,6.73
2019-02-23T04:56:49.158Z,8.37
2019-02-23T05:01:50.859Z,9.27
2019-02-23T05:06:52.432Z,6.97
2019-02-23T05:11:54.005Z,6.43
2019-02-23T05:16:55.579Z,7.67
2019-02-23T05:21:57.252Z,6.57
2019-02-23T05:26:58.929Z,12.83
2019-02-23T05:32:00.588Z,7.30
2019-02-23T05:37:02.286Z,10.57
2019-02-23T05:42:04.072Z,8.17
2019-02-23T05:47:05.643Z,11.33
2019-02-23T05:52:07.319Z,7.87
2019-02-23T05:57:08.896Z,6.47
2019-02-23T06:02:10.647Z,9.13
2019-02-23T06:07:12.478Z,8.43
2019-02-23T06:12:14.025Z,8.23
2019-02-23T06:17:15.593Z,7.67
2019-02-23T06:22:17.166Z,7.63
2019-02-23T06:27:18.725Z,7.90
2019-02-23T06:32:20.295Z,7.60
2019-02-23T06:37:21.875Z,7.27
2019-02-23T06:42:23.460Z,7.27
2019-02-23T06:47:25.014Z,7.10
2019-02-23T06:52:26.564Z,7.60
2019-02-23T06:57:28.118Z,7.23
2019-02-23T07:02:29.679Z,7.43
2019-02-23T07:07:31.250Z,7.93
2019-02-23T07:12:32.806Z,8.57
2019-02-23T07:17:34.362Z,8.70
2019-02-23T07:22:36.041Z,9.63
2019-02-23T07:27:37.622Z,10.30
2019-02-23T07:32:39.189Z,10.00
2019-02-23T07:37:40.769Z,10.93
2019-02-23T07:42:42.372Z,9.37
2019-02-23T07:47:43.948Z,13.87
2019-02-23T07:52:45.533Z,10.80
2019-02-23T07:57:47.227Z,8.40
2019-02-23T08:02:48.787Z,9.90
2019-02-23T08:07:50.476Z,12.07
2019-02-23T08:12:52.053Z,10.73
2019-02-23T08:17:53.633Z,8.07
2019-02-23T08:22:55.249Z,9.63
2019-02-23T08:27:56.811Z,10.17
2019-02-23T08:32:58.520Z,11.50
2019-02-23T08:38:00.088Z,14.73
2019-02-23T08:43:01.716Z,16.37
2019-02-23T08:48:03.277Z,16.27
2019-02-23T08:53:04.871Z,15.97
2019-02-23T08:58:06.591Z,12.83
2019-02-23T09:03:08.187Z,15.43
2019-02-23T09:08:10.373Z,13.93
2019-02-23T09:13:12.025Z,13.47
2019-02-23T09:18:13.598Z,16.70
2019-02-23T09:23:15.171Z,15.83
2019-02-23T09:28:16.737Z,16.63
2019-02-23T09:33:18.427Z,15.73
2019-02-23T09:38:19.994Z,16.23
2019-02-23T09:43:21.609Z,14.53
2019-02-23T09:48:23.197Z,14.13
2019-02-23T09:53:24.761Z,14.60
2019-02-23T09:58:26.303Z,14.27
2019-02-23T10:03:27.904Z,15.17
2019-02-23T10:08:29.468Z,15.77
2019-02-23T10:13:31.033Z,13.80
2019-02-23T10:18:32.631Z,13.93
2019-02-23T10:23:34.244Z,16.17
2019-02-23T10:28:35.812Z,16.17
2019-02-23T10:33:47.150Z,14.10
2019-02-23T10:38:40.863Z,11.47
2019-02-23T10:43:42.443Z,12.93
2019-02-23T10:48:44.160Z,10.43
2019-02-23T10:53:45.896Z,12.80
2019-02-23T10:58:47.606Z,13.50
2019-02-23T11:03:49.143Z,12.33
2019-02-23T11:08:50.706Z,13.43
2019-02-23T11:13:52.363Z,11.10
2019-02-23T11:18:53.943Z,12.80
2019-02-23T11:23:55.618Z,12.67
2019-02-23T11:28:57.185Z,13.07
2019-02-23T11:33:58.764Z,12.03
2019-02-23T11:39:00.332Z,14.87
2019-02-23T11:44:02.040Z,15.87
2019-02-23T11:49:03.774Z,12.07
2019-02-23T11:54:05.320Z,10.70
2019-02-23T11:59:06.871Z,10.10
2019-02-23T12:04:08.539Z,10.03
2019-02-23T12:09:10.095Z,8.75
2019-02-23T12:14:11.777Z,10.32
2019-02-23T12:19:13.327Z,9.88
2019-02-23T12:24:14.879Z,11.43
2019-02-23T12:29:16.434Z,10.55
2019-02-23T12:34:18.018Z,12.05
2019-02-23T12:39:19.677Z,11.00
2019-02-23T12:44:21.238Z,11.22
2019-02-23T12:49:22.924Z,11.70
2019-02-23T12:54:24.498Z,11.25
2019-02-23T12:59:26.176Z,12.10
2019-02-23T13:04:28.541Z,9.58
2019-02-23T13:09:35.161Z,8.88
2019-02-23T13:14:52.857Z,8.33
2019-02-23T13:20:35.799Z,11.10
2019-02-23T13:26:06.819Z,9.38
2019-02-23T13:31:15.841Z,11.90
2019-02-23T13:36:42.677Z,10.00
2019-02-23T13:42:28.209Z,11.50
2019-02-23T13:48:17.054Z,8.98
2019-02-23T13:53:32.368Z,11.33
2019-02-23T13:58:55.720Z,9.30
2019-02-23T14:04:34.145Z,17.00
2019-02-23T14:10:20.690Z,12.13
2019-02-23T14:15:45.710Z,8.37
2019-02-23T14:21:26.596Z,7.47
2019-02-23T14:27:19.326Z,11.10
2019-02-23T14:33:12.410Z,6.87
2019-02-23T14:38:48.450Z,8.03
2019-02-23T14:44:13.554Z,5.17
2019-02-23T14:49:46.674Z,7.07
2019-02-23T14:55:09.171Z,6.00
2019-02-23T15:00:55.639Z,8.03
2019-02-23T15:06:23.352Z,8.43
2019-02-23T15:12:00.525Z,7.07
2019-02-23T15:18:11.541Z,7.47
2019-02-23T15:23:26.216Z,7.53
2019-02-23T15:28:52.879Z,9.63
2019-02-23T15:34:48.736Z,7.90
2019-02-23T15:40:16.179Z,7.50
2019-02-23T15:45:38.586Z,9.93
2019-02-23T15:50:40.161Z,12.30
2019-02-23T15:55:41.701Z,10.03
2019-02-23T16:00:43.395Z,10.27
2019-02-23T16:05:45.053Z,11.47
2019-02-23T16:10:46.631Z,9.40
2019-02-23T16:15:48.382Z,10.10
2019-02-23T16:20:49.936Z,11.57
2019-02-23T16:25:51.498Z,11.53
2019-02-23T16:30:53.057Z,11.93
2019-02-23T16:35:54.654Z,10.40
2019-02-23T16:40:56.246Z,12.33
2019-02-23T16:45:57.837Z,9.60
2019-02-23T16:50:59.564Z,9.33
2019-02-23T16:56:01.218Z,9.53
2019-02-23T17:01:04.339Z,11.67
2019-02-23T17:06:06.090Z,10.73
2019-02-23T17:11:08.026Z,10.80
2019-02-23T17:16:09.595Z,10.23
2019-02-23T17:21:11.191Z,10.67
2019-02-23T17:26:12.801Z,9.33
2019-02-23T17:31:14.391Z,11.80
2019-02-23T17:36:15.998Z,11.03
2019-02-23T17:41:17.650Z,11.30
2019-02-23T17:46:19.312Z,10.50
2019-02-23T17:51:20.884Z,10.40
2019-02-23T17:56:22.455Z,9.80
2019-02-23T18:01:25.470Z,12.40
2019-02-23T18:06:27.243Z,13.77
2019-02-23T18:11:28.819Z,12.57
2019-02-23T18:16:30.581Z,12.10
2019-02-23T18:21:32.255Z,12.70
2019-02-23T18:26:33.811Z,13.70
2019-02-23T18:31:35.416Z,15.70
2019-02-23T18:36:36.976Z,14.30
2019-02-23T18:41:38.665Z,12.20
2019-02-23T18:46:40.242Z,16.80
2019-02-23T18:51:41.833Z,15.50
2019-02-23T18:56:43.432Z,17.27
2019-02-23T19:01:45.029Z,17.20
2019-02-23T19:06:46.598Z,18.93
2019-02-23T19:11:48.172Z,18.77
2019-02-23T19:16:49.839Z,15.67
2019-02-23T19:21:52.078Z,10.73
2019-02-23T19:26:53.798Z,10.13
2019-02-23T19:31:55.491Z,14.00
2019-02-23T19:36:57.164Z,13.27
2019-02-23T19:41:58.762Z,12.00
2019-02-23T19:47:05.508Z,14.07
2019-02-23T19:52:07.069Z,23.90
2019-02-23T19:57:08.637Z,25.33
2019-02-23T20:02:10.221Z,30.73
2019-02-23T20:07:11.791Z,24.80
2019-02-23T20:12:13.356Z,20.13
2019-02-23T20:17:14.945Z,20.40
2019-02-23T20:22:16.526Z,16.47
2019-02-23T20:27:18.154Z,15.10
2019-02-23T20:32:19.756Z,20.33
2019-02-23T20:37:21.360Z,18.50
2019-02-23T20:42:22.947Z,16.77
2019-02-23T20:47:24.533Z,15.47
2019-02-23T20:52:26.221Z,15.27
2019-02-23T20:57:27.779Z,15.03
2019-02-23T21:02:29.372Z,12.10
2019-02-23T21:07:30.971Z,15.80
2019-02-23T21:12:34.445Z,15.80
2019-02-23T21:17:36.125Z,18.87
2019-02-23T21:22:37.796Z,16.90
2019-02-23T21:27:39.362Z,16.07
2019-02-23T21:32:40.942Z,16.43
2019-02-23T21:37:42.657Z,14.70
2019-02-23T21:42:44.246Z,17.70
2019-02-23T21:47:45.838Z,23.73
2019-02-23T21:52:47.579Z,18.47
2019-02-23T21:57:49.195Z,15.13
2019-02-23T22:02:50.769Z,13.07
2019-02-23T22:07:52.348Z,17.90
2019-02-23T22:12:53.924Z,15.47
2019-02-23T22:17:55.509Z,17.53
2019-02-23T22:22:57.127Z,17.23
2019-02-23T22:27:58.736Z,15.23
2019-02-23T22:33:00.307Z,16.60
2019-02-23T22:38:01.987Z,16.20
2019-02-23T22:43:03.799Z,14.83
2019-02-23T22:48:05.521Z,18.77
2019-02-23T22:53:07.109Z,13.90
2019-02-23T22:58:08.715Z,14.07
2019-02-23T23:03:10.382Z,12.10
2019-02-23T23:08:11.955Z,13.83
2019-02-23T23:13:13.580Z,18.17
2019-02-23T23:18:15.256Z,15.77
2019-02-23T23:23:16.807Z,12.80
2019-02-23T23:28:18.363Z,13.80
2019-02-23T23:33:20.160Z,14.03
2019-02-23T23:38:21.711Z,13.67
2019-02-23T23:43:23.292Z,12.77
2019-02-23T23:48:24.859Z,13.30
2019-02-23T23:53:26.429Z,12.10
2019-02-23T23:58:27.995Z,12.80
